Victory — ODVS — position and weather

sailwx.info

Track history (hours):
 
Tides and Currents Weather Stations Pressure Air Temp Water Temp Dewpoint Dewpoint Depression Visibility Wind Speed Wind Dir Waves Ship Positions

Victory

Last reported at 2017-Nov-12 00:41 UTC. Time now 2017-Nov-24 04:06 UTC.
Position N 28°19' W 016°03'.
Warning: this ship's position is 12 days out of date.

Length 120 m; draft 6.5 m.

Type: Cargo ship. MMSI: 450548000.

Date/timePositionNaut miles runAvg speedWind from/ knotsBaromVisibWave heightAir tempDewpointWater temp
2017-Nov-12 00:41N 28°19' W 016°03'211.8
2017-Nov-12 00:31N 28°20' W 016°01'611.7
2017-Nov-12 00:01N 28°25' W 015°57'611.6
2017-Nov-11 23:30N 28°29' W 015°53'611.7
2017-Nov-11 23:01N 28°34' W 015°48'611.7
2017-Nov-11 22:31N 28°38' W 015°44'611.7
2017-Nov-11 22:01N 28°42' W 015°39'611.6
2017-Nov-11 21:31N 28°46' W 015°34'611.4
2017-Nov-11 21:01N 28°50' W 015°29'611.5
2017-Nov-11 20:31N 28°54' W 015°24'611.5
2017-Nov-11 20:01N 28°58' W 015°19'611.7
2017-Nov-11 19:31N 29°01' W 015°14'611.6
2017-Nov-11 19:01N 29°05' W 015°10'611.2
2017-Nov-11 18:31N 29°09' W 015°05'611.0
2017-Nov-11 18:00N 29°13' W 015°00'611.3
2017-Nov-11 17:30N 29°17' W 014°55'511.3
2017-Nov-11 17:00N 29°20' W 014°51'611.4
2017-Nov-11 16:30N 29°24' W 014°46'611.4
2017-Nov-11 16:00N 29°28' W 014°41'611.2
2017-Nov-11 15:30N 29°32' W 014°36'611.3
2017-Nov-11 15:00N 29°36' W 014°31'511.2
2017-Nov-11 14:30N 29°40' W 014°27'611.1
2017-Nov-11 14:00N 29°43' W 014°22'611.1
2017-Nov-11 13:30N 29°47' W 014°17'510.9
2017-Nov-11 13:00N 29°50' W 014°12'511.0
2017-Nov-11 12:30N 29°54' W 014°07'611.1
2017-Nov-11 12:00N 29°57' W 014°02'611.3
2017-Nov-11 11:29N 30°01' W 013°57'511.1
2017-Nov-11 11:00N 30°05' W 013°52'611.3
2017-Nov-11 10:31N 30°08' W 013°47'611.2
2017-Nov-11 10:01N 30°12' W 013°43'611.1
2017-Nov-11 09:30N 30°16' W 013°38'611.2
2017-Nov-11 09:00N 30°20' W 013°33'611.6
2017-Nov-11 08:31N 30°23' W 013°28'811.9
2017-Nov-11 07:48N 30°29' W 013°21'411.8
2017-Nov-11 07:28N 30°32' W 013°18'511.5
2017-Nov-11 07:01N 30°36' W 013°14'610.9
2017-Nov-11 06:30N 30°40' W 013°09'711.5
2017-Nov-11 05:56N 30°45' W 013°04'511.5
2017-Nov-11 05:31N 30°48' W 013°00'711.6
2017-Nov-11 04:52N 30°54' W 012°54'1211.4
2017-Nov-11 03:50N 31°02' W 012°45'811.2
2017-Nov-11 03:07N 31°08' W 012°38'610.7
2017-Nov-11 02:31N 31°12' W 012°33'011.1
2017-Nov-11 02:29N 31°12' W 012°32'5211.5
2017-Nov-10 22:01N 31°46' W 011°46'311.5
2017-Nov-10 21:43N 31°48' W 011°43'211.4
2017-Nov-10 21:30N 31°50' W 011°41'611.6
2017-Nov-10 21:00N 31°54' W 011°36'611.6
2017-Nov-10 20:29N 31°58' W 011°31'611.4
2017-Nov-10 19:59N 32°02' W 011°26'611.4
2017-Nov-10 19:28N 32°06' W 011°21'611.5
2017-Nov-10 18:57N 32°10' W 011°16'511.7
2017-Nov-10 18:30N 32°14' W 011°12'  
2017-Nov-07 14:21N 36°11' W 004°51'3 1.0
2017-Nov-07 11:13N 36°08' W 004°52'0 1.0
2017-Nov-07 10:57N 36°08' W 004°53'0 0.9
2017-Nov-07 10:30N 36°08' W 004°53'0 0.9
2017-Nov-07 10:00N 36°07' W 004°53'0 0.9
2017-Nov-07 09:30N 36°07' W 004°53'1 0.9
2017-Nov-07 08:51N 36°06' W 004°54'0 0.8
2017-Nov-07 08:30N 36°06' W 004°54'0 0.8
2017-Nov-07 08:00N 36°06' W 004°54'0 0.9
2017-Nov-07 07:30N 36°06' W 004°55'1 1.1
2017-Nov-07 07:00N 36°06' W 004°56'1 1.1
2017-Nov-07 06:30N 36°05' W 004°56'1 1.2
2017-Nov-07 06:00N 36°05' W 004°57'18 0.5
2017-Nov-05 15:10N 35°56' W 005°17'1 7.8
2017-Nov-05 15:01N 35°56' W 005°18'1 2.2
2017-Nov-05 14:25N 35°55' W 005°19'0 0.1
2017-Nov-05 13:55N 35°55' W 005°19'0 0.0
2017-Nov-05 13:28N 35°55' W 005°19'0 0.0
2017-Nov-05 12:58N 35°55' W 005°19'0 0.0
2017-Nov-05 12:28N 35°55' W 005°19'0 0.0
2017-Nov-05 11:58N 35°55' W 005°19'0 0.1
2017-Nov-05 11:28N 35°55' W 005°19'0 0.0
2017-Nov-05 10:58N 35°55' W 005°19'0 0.0
2017-Nov-05 10:28N 35°55' W 005°19'0 0.0
2017-Nov-05 09:58N 35°55' W 005°19'0 0.0
2017-Nov-05 09:28N 35°55' W 005°19'0 0.0
2017-Nov-05 08:58N 35°55' W 005°19'0 0.0
2017-Nov-05 08:28N 35°55' W 005°19'0 0.0
2017-Nov-05 07:58N 35°55' W 005°19'0 0.0
2017-Nov-05 07:28N 35°55' W 005°19'0 0.0
2017-Nov-05 06:58N 35°55' W 005°19'0 0.1
2017-Nov-05 06:28N 35°55' W 005°19'0 0.0
2017-Nov-05 05:58N 35°55' W 005°19'0 0.0
2017-Nov-05 05:28N 35°55' W 005°19'0 0.0
2017-Nov-05 04:58N 35°55' W 005°19'0 0.0
2017-Nov-05 04:28N 35°55' W 005°19'0 0.0
2017-Nov-05 03:58N 35°55' W 005°19'0 0.0
2017-Nov-05 03:28N 35°55' W 005°19'0 0.0
2017-Nov-05 02:58N 35°55' W 005°19'0 0.1
2017-Nov-05 02:28N 35°55' W 005°19'0 0.0
2017-Nov-05 01:58N 35°55' W 005°19'0 0.0
2017-Nov-05 01:28N 35°55' W 005°19'0 0.0
2017-Nov-05 00:58N 35°55' W 005°19'0 0.0
2017-Nov-05 00:28N 35°55' W 005°19'0 0.0
2017-Nov-04 23:58N 35°55' W 005°19'0 0.0
2017-Nov-04 23:28N 35°55' W 005°19'0 0.1
2017-Nov-04 22:58N 35°55' W 005°19'0 0.0
2017-Nov-04 22:28N 35°55' W 005°19'0 0.0
2017-Nov-04 21:58N 35°55' W 005°19'0 0.1
2017-Nov-04 21:28N 35°55' W 005°19'0 0.1
2017-Nov-04 20:58N 35°55' W 005°19'0 0.0
2017-Nov-04 20:28N 35°55' W 005°19'0 0.0
2017-Nov-04 19:58N 35°55' W 005°19'0 0.0
2017-Nov-04 19:28N 35°55' W 005°19'0 0.1
2017-Nov-04 19:00N 35°55' W 005°19'0 0.2
2017-Nov-04 18:30N 35°55' W 005°19'  
Track history (hours):
 
Tides and Currents Weather Stations Pressure Air Temp Water Temp Dewpoint Dewpoint Depression Visibility Wind Speed Wind Dir Waves Ship Positions

Victory

Last reported at 2017-Nov-12 00:41 UTC. Time now 2017-Nov-24 04:06 UTC.
Position N 28°19' W 016°03'.
Warning: this ship's position is 12 days out of date.

Length 120 m; draft 6.5 m.

Type: Cargo ship. MMSI: 450548000.

Date/timePositionNaut miles runAvg speedWind from/ knotsBaromVisibWave heightAir tempDewpointWater temp
2017-Nov-12 00:41N 28°19' W 016°03'211.8
2017-Nov-12 00:31N 28°20' W 016°01'611.7
2017-Nov-12 00:01N 28°25' W 015°57'611.6
2017-Nov-11 23:30N 28°29' W 015°53'611.7
2017-Nov-11 23:01N 28°34' W 015°48'611.7
2017-Nov-11 22:31N 28°38' W 015°44'611.7
2017-Nov-11 22:01N 28°42' W 015°39'611.6
2017-Nov-11 21:31N 28°46' W 015°34'611.4
2017-Nov-11 21:01N 28°50' W 015°29'611.5
2017-Nov-11 20:31N 28°54' W 015°24'611.5
2017-Nov-11 20:01N 28°58' W 015°19'611.7
2017-Nov-11 19:31N 29°01' W 015°14'611.6
2017-Nov-11 19:01N 29°05' W 015°10'611.2
2017-Nov-11 18:31N 29°09' W 015°05'611.0
2017-Nov-11 18:00N 29°13' W 015°00'611.3
2017-Nov-11 17:30N 29°17' W 014°55'511.3
2017-Nov-11 17:00N 29°20' W 014°51'611.4
2017-Nov-11 16:30N 29°24' W 014°46'611.4
2017-Nov-11 16:00N 29°28' W 014°41'611.2
2017-Nov-11 15:30N 29°32' W 014°36'611.3
2017-Nov-11 15:00N 29°36' W 014°31'511.2
2017-Nov-11 14:30N 29°40' W 014°27'611.1
2017-Nov-11 14:00N 29°43' W 014°22'611.1
2017-Nov-11 13:30N 29°47' W 014°17'510.9
2017-Nov-11 13:00N 29°50' W 014°12'511.0
2017-Nov-11 12:30N 29°54' W 014°07'611.1
2017-Nov-11 12:00N 29°57' W 014°02'611.3
2017-Nov-11 11:29N 30°01' W 013°57'511.1
2017-Nov-11 11:00N 30°05' W 013°52'611.3
2017-Nov-11 10:31N 30°08' W 013°47'611.2
2017-Nov-11 10:01N 30°12' W 013°43'611.1
2017-Nov-11 09:30N 30°16' W 013°38'611.2
2017-Nov-11 09:00N 30°20' W 013°33'611.6
2017-Nov-11 08:31N 30°23' W 013°28'811.9
2017-Nov-11 07:48N 30°29' W 013°21'411.8
2017-Nov-11 07:28N 30°32' W 013°18'511.5
2017-Nov-11 07:01N 30°36' W 013°14'610.9
2017-Nov-11 06:30N 30°40' W 013°09'711.5
2017-Nov-11 05:56N 30°45' W 013°04'511.5
2017-Nov-11 05:31N 30°48' W 013°00'711.6
2017-Nov-11 04:52N 30°54' W 012°54'1211.4
2017-Nov-11 03:50N 31°02' W 012°45'811.2
2017-Nov-11 03:07N 31°08' W 012°38'610.7
2017-Nov-11 02:31N 31°12' W 012°33'011.1
2017-Nov-11 02:29N 31°12' W 012°32'5211.5
2017-Nov-10 22:01N 31°46' W 011°46'311.5
2017-Nov-10 21:43N 31°48' W 011°43'211.4
2017-Nov-10 21:30N 31°50' W 011°41'611.6
2017-Nov-10 21:00N 31°54' W 011°36'611.6
2017-Nov-10 20:29N 31°58' W 011°31'611.4
2017-Nov-10 19:59N 32°02' W 011°26'611.4
2017-Nov-10 19:28N 32°06' W 011°21'611.5
2017-Nov-10 18:57N 32°10' W 011°16'511.7
2017-Nov-10 18:30N 32°14' W 011°12'  
2017-Nov-07 14:21N 36°11' W 004°51'3 1.0
2017-Nov-07 11:13N 36°08' W 004°52'0 1.0
2017-Nov-07 10:57N 36°08' W 004°53'0 0.9
2017-Nov-07 10:30N 36°08' W 004°53'0 0.9
2017-Nov-07 10:00N 36°07' W 004°53'0 0.9
2017-Nov-07 09:30N 36°07' W 004°53'1 0.9
2017-Nov-07 08:51N 36°06' W 004°54'0 0.8
2017-Nov-07 08:30N 36°06' W 004°54'0 0.8
2017-Nov-07 08:00N 36°06' W 004°54'0 0.9
2017-Nov-07 07:30N 36°06' W 004°55'1 1.1
2017-Nov-07 07:00N 36°06' W 004°56'1 1.1
2017-Nov-07 06:30N 36°05' W 004°56'1 1.2
2017-Nov-07 06:00N 36°05' W 004°57'18 0.5
2017-Nov-05 15:10N 35°56' W 005°17'1 7.8
2017-Nov-05 15:01N 35°56' W 005°18'1 2.2
2017-Nov-05 14:25N 35°55' W 005°19'0 0.1
2017-Nov-05 13:55N 35°55' W 005°19'0 0.0
2017-Nov-05 13:28N 35°55' W 005°19'0 0.0
2017-Nov-05 12:58N 35°55' W 005°19'0 0.0
2017-Nov-05 12:28N 35°55' W 005°19'0 0.0
2017-Nov-05 11:58N 35°55' W 005°19'0 0.1
2017-Nov-05 11:28N 35°55' W 005°19'0 0.0
2017-Nov-05 10:58N 35°55' W 005°19'0 0.0
2017-Nov-05 10:28N 35°55' W 005°19'0 0.0
2017-Nov-05 09:58N 35°55' W 005°19'0 0.0
2017-Nov-05 09:28N 35°55' W 005°19'0 0.0
2017-Nov-05 08:58N 35°55' W 005°19'0 0.0
2017-Nov-05 08:28N 35°55' W 005°19'0 0.0
2017-Nov-05 07:58N 35°55' W 005°19'0 0.0
2017-Nov-05 07:28N 35°55' W 005°19'0 0.0
2017-Nov-05 06:58N 35°55' W 005°19'0 0.1
2017-Nov-05 06:28N 35°55' W 005°19'0 0.0
2017-Nov-05 05:58N 35°55' W 005°19'0 0.0
2017-Nov-05 05:28N 35°55' W 005°19'0 0.0
2017-Nov-05 04:58N 35°55' W 005°19'0 0.0
2017-Nov-05 04:28N 35°55' W 005°19'0 0.0
2017-Nov-05 03:58N 35°55' W 005°19'0 0.0
2017-Nov-05 03:28N 35°55' W 005°19'0 0.0
2017-Nov-05 02:58N 35°55' W 005°19'0 0.1
2017-Nov-05 02:28N 35°55' W 005°19'0 0.0
2017-Nov-05 01:58N 35°55' W 005°19'0 0.0
2017-Nov-05 01:28N 35°55' W 005°19'0 0.0
2017-Nov-05 00:58N 35°55' W 005°19'0 0.0
2017-Nov-05 00:28N 35°55' W 005°19'0 0.0
2017-Nov-04 23:58N 35°55' W 005°19'0 0.0
2017-Nov-04 23:28N 35°55' W 005°19'0 0.1
2017-Nov-04 22:58N 35°55' W 005°19'0 0.0
2017-Nov-04 22:28N 35°55' W 005°19'0 0.0
2017-Nov-04 21:58N 35°55' W 005°19'0 0.1
2017-Nov-04 21:28N 35°55' W 005°19'0 0.1
2017-Nov-04 20:58N 35°55' W 005°19'0 0.0
2017-Nov-04 20:28N 35°55' W 005°19'0 0.0
2017-Nov-04 19:58N 35°55' W 005°19'0 0.0
2017-Nov-04 19:28N 35°55' W 005°19'0 0.1
2017-Nov-04 19:00N 35°55' W 005°19'0 0.2
2017-Nov-04 18:30N 35°55' W 005°19'  

Dump ship's entire track history